sensor_id;sensor_type;location;lat;lon;timestamp;pressure;altitude;pressure_sealevel;temperature;humidity
55590;BME280;41452;42.780;23.116;2022-10-16T00:00:31;94894.78;;;5.30;84.58
55590;BME280;41452;42.780;23.116;2022-10-16T00:02:56;94819.03;;;4.74;84.54
55590;BME280;41452;42.780;23.116;2022-10-16T00:05:22;94867.72;;;5.10;84.62
55590;BME280;41452;42.780;23.116;2022-10-16T00:07:47;94962.38;;;5.75;84.66
55590;BME280;41452;42.780;23.116;2022-10-16T00:10:13;94690.63;;;3.94;84.38
55590;BME280;41452;42.780;23.116;2022-10-16T00:12:38;94745.56;;;4.35;84.06
55590;BME280;41452;42.780;23.116;2022-10-16T00:15:04;94804.25;;;4.60;84.19
55590;BME280;41452;42.780;23.116;2022-10-16T00:17:30;94964.22;;;5.60;84.36
55590;BME280;41452;42.780;23.116;2022-10-16T00:19:55;94901.88;;;5.22;83.84
55590;BME280;41452;42.780;23.116;2022-10-16T00:22:21;94799.88;;;4.60;83.91
55590;BME280;41452;42.780;23.116;2022-10-16T00:24:47;94863.59;;;5.01;83.96
55590;BME280;41452;42.780;23.116;2022-10-16T00:27:12;94847.47;;;4.90;83.56
55590;BME280;41452;42.780;23.116;2022-10-16T00:29:38;94733.03;;;4.09;83.59
55590;BME280;41452;42.780;23.116;2022-10-16T00:32:03;94998.19;;;5.88;83.62
55590;BME280;41452;42.780;23.116;2022-10-16T00:34:29;94845.50;;;4.92;83.31
55590;BME280;41452;42.780;23.116;2022-10-16T00:36:54;94983.41;;;5.74;83.07
55590;BME280;41452;42.780;23.116;2022-10-16T00:39:19;94773.34;;;4.35;83.60
55590;BME280;41452;42.780;23.116;2022-10-16T00:41:45;94910.78;;;5.12;84.07
55590;BME280;41452;42.780;23.116;2022-10-16T00:47:10;94966.72;;;5.31;84.31
55590;BME280;41452;42.780;23.116;2022-10-16T00:49:38;95019.88;;;5.74;84.13
55590;BME280;41452;42.780;23.116;2022-10-16T00:52:04;95021.69;;;5.73;84.18
55590;BME280;41452;42.780;23.116;2022-10-16T00:54:31;94904.06;;;4.88;84.02
55590;BME280;41452;42.780;23.116;2022-10-16T00:57:00;94942.91;;;5.20;83.99
55590;BME280;41452;42.780;23.116;2022-10-16T00:59:32;94985.72;;;5.47;83.90
55590;BME280;41452;42.780;23.116;2022-10-16T01:01:59;95033.75;;;5.74;84.35
55590;BME280;41452;42.780;23.116;2022-10-16T01:04:25;94754.00;;;3.93;83.77
55590;BME280;41452;42.780;23.116;2022-10-16T01:12:30;94991.44;;;5.57;83.36
55590;BME280;41452;42.780;23.116;2022-10-16T01:20:16;94800.06;;;4.29;83.64
55590;BME280;41452;42.780;23.116;2022-10-16T01:28:14;94947.69;;;5.16;83.46
55590;BME280;41452;42.780;23.116;2022-10-16T01:30:44;94632.34;;;3.22;83.52
55590;BME280;41452;42.780;23.116;2022-10-16T01:33:18;94889.91;;;4.76;83.51
55590;BME280;41452;42.780;23.116;2022-10-16T01:35:53;94773.97;;;3.92;83.84
55590;BME280;41452;42.780;23.116;2022-10-16T01:38:21;95015.53;;;5.59;83.68
55590;BME280;41452;42.780;23.116;2022-10-16T01:40:57;95019.22;;;5.50;83.15
55590;BME280;41452;42.780;23.116;2022-10-16T01:43:28;95025.06;;;5.52;83.66
55590;BME280;41452;42.780;23.116;2022-10-16T01:45:55;94750.47;;;3.56;83.93
55590;BME280;41452;42.780;23.116;2022-10-16T01:48:23;94783.84;;;3.82;83.84
55590;BME280;41452;42.780;23.116;2022-10-16T01:50:55;94814.13;;;4.05;84.08
55590;BME280;41452;42.780;23.116;2022-10-16T01:53:22;94797.19;;;3.94;83.69
55590;BME280;41452;42.780;23.116;2022-10-16T01:55:49;94850.81;;;4.40;83.41
55590;BME280;41452;42.780;23.116;2022-10-16T01:58:17;94712.28;;;3.41;83.15
55590;BME280;41452;42.780;23.116;2022-10-16T02:00:45;95022.19;;;5.47;82.78
55590;BME280;41452;42.780;23.116;2022-10-16T02:03:13;95066.91;;;5.65;83.01
55590;BME280;41452;42.780;23.116;2022-10-16T02:05:45;94878.09;;;4.59;82.47
55590;BME280;41452;42.780;23.116;2022-10-16T02:08:11;94869.66;;;4.42;82.51
55590;BME280;41452;42.780;23.116;2022-10-16T02:10:37;95051.66;;;5.47;82.66
55590;BME280;41452;42.780;23.116;2022-10-16T02:13:08;95054.25;;;5.32;82.93
55590;BME280;41452;42.780;23.116;2022-10-16T02:15:35;94920.59;;;4.36;83.12
55590;BME280;41452;42.780;23.116;2022-10-16T02:18:02;95077.81;;;5.39;83.37
55590;BME280;41452;42.780;23.116;2022-10-16T02:20:33;94818.94;;;3.78;82.47
55590;BME280;41452;42.780;23.116;2022-10-16T02:23:01;94860.66;;;4.14;82.61
55590;BME280;41452;42.780;23.116;2022-10-16T02:25:30;94914.88;;;4.55;82.26
55590;BME280;41452;42.780;23.116;2022-10-16T02:28:16;95059.09;;;5.50;82.37
55590;BME280;41452;42.780;23.116;2022-10-16T02:30:57;95058.03;;;5.45;82.17
55590;BME280;41452;42.780;23.116;2022-10-16T02:33:25;94776.78;;;3.53;82.10
55590;BME280;41452;42.780;23.116;2022-10-16T02:35:53;94991.78;;;4.88;82.35
55590;BME280;41452;42.780;23.116;2022-10-16T02:38:20;95063.25;;;5.30;82.38
55590;BME280;41452;42.780;23.116;2022-10-16T02:40:46;95069.09;;;5.32;82.31
55590;BME280;41452;42.780;23.116;2022-10-16T02:43:12;95060.09;;;5.34;82.38
55590;BME280;41452;42.780;23.116;2022-10-16T02:45:38;95022.38;;;5.01;82.33
55590;BME280;41452;42.780;23.116;2022-10-16T02:48:04;94934.38;;;4.36;82.52
55590;BME280;41452;42.780;23.116;2022-10-16T02:50:30;94981.06;;;4.68;82.84
55590;BME280;41452;42.780;23.116;2022-10-16T02:52:55;94808.00;;;3.45;82.34
55590;BME280;41452;42.780;23.116;2022-10-16T02:55:20;95017.69;;;4.81;82.10
55590;BME280;41452;42.780;23.116;2022-10-16T02:57:46;95034.94;;;4.97;82.30
55590;BME280;41452;42.780;23.116;2022-10-16T03:00:14;94991.72;;;4.58;82.21
55590;BME280;41452;42.780;23.116;2022-10-16T03:02:40;94906.72;;;4.06;81.84
55590;BME280;41452;42.780;23.116;2022-10-16T03:05:06;95035.31;;;4.94;81.39
55590;BME280;41452;42.780;23.116;2022-10-16T03:07:32;94795.75;;;3.53;81.68
55590;BME280;41452;42.780;23.116;2022-10-16T03:09:57;94990.88;;;4.81;81.24
55590;BME280;41452;42.780;23.116;2022-10-16T03:12:26;94933.75;;;4.34;81.74
55590;BME280;41452;42.780;23.116;2022-10-16T03:14:51;94900.63;;;4.13;81.09
55590;BME280;41452;42.780;23.116;2022-10-16T03:17:17;94779.06;;;3.33;81.37
55590;BME280;41452;42.780;23.116;2022-10-16T03:19:42;94943.31;;;4.19;81.25
55590;BME280;41452;42.780;23.116;2022-10-16T03:22:08;94994.94;;;4.45;81.83
55590;BME280;41452;42.780;23.116;2022-10-16T03:24:33;95055.00;;;4.73;82.64
55590;BME280;41452;42.780;23.116;2022-10-16T03:26:59;94988.16;;;4.21;82.79
55590;BME280;41452;42.780;23.116;2022-10-16T03:29:24;94882.47;;;3.52;83.22
55590;BME280;41452;42.780;23.116;2022-10-16T03:31:51;95089.59;;;4.82;83.50
55590;BME280;41452;42.780;23.116;2022-10-16T03:34:16;95100.97;;;4.81;83.45
55590;BME280;41452;42.780;23.116;2022-10-16T03:36:42;94852.56;;;3.33;83.02
55590;BME280;41452;42.780;23.116;2022-10-16T03:39:07;94889.91;;;3.55;82.97
55590;BME280;41452;42.780;23.116;2022-10-16T03:41:32;94953.44;;;3.91;82.72
55590;BME280;41452;42.780;23.116;2022-10-16T03:43:58;94746.63;;;2.59;82.63
55590;BME280;41452;42.780;23.116;2022-10-16T03:46:23;94832.69;;;2.94;83.00
55590;BME280;41452;42.780;23.116;2022-10-16T03:48:49;94845.81;;;3.24;83.22
55590;BME280;41452;42.780;23.116;2022-10-16T03:51:14;94843.09;;;3.17;82.93
55590;BME280;41452;42.780;23.116;2022-10-16T03:53:40;94935.53;;;3.73;82.85
55590;BME280;41452;42.780;23.116;2022-10-16T03:56:05;94928.63;;;3.65;82.53
55590;BME280;41452;42.780;23.116;2022-10-16T03:58:31;94985.78;;;4.11;82.90
55590;BME280;41452;42.780;23.116;2022-10-16T04:00:56;95087.31;;;4.79;82.43
55590;BME280;41452;42.780;23.116;2022-10-16T04:03:21;94971.75;;;3.97;82.16
55590;BME280;41452;42.780;23.116;2022-10-16T04:05:48;94791.91;;;2.80;82.42
55590;BME280;41452;42.780;23.116;2022-10-16T04:08:13;94855.19;;;3.25;82.89
55590;BME280;41452;42.780;23.116;2022-10-16T04:10:39;94838.28;;;3.06;82.49
55590;BME280;41452;42.780;23.116;2022-10-16T04:13:04;95090.41;;;4.60;82.70
55590;BME280;41452;42.780;23.116;2022-10-16T04:15:29;94777.41;;;2.62;82.25
55590;BME280;41452;42.780;23.116;2022-10-16T04:17:55;94912.00;;;3.51;82.97
55590;BME280;41452;42.780;23.116;2022-10-16T04:20:20;94952.81;;;3.66;83.03
55590;BME280;41452;42.780;23.116;2022-10-16T04:22:46;94984.34;;;3.86;82.84
55590;BME280;41452;42.780;23.116;2022-10-16T04:25:11;95090.19;;;4.46;83.13
55590;BME280;41452;42.780;23.116;2022-10-16T04:27:37;94928.00;;;3.32;83.57
55590;BME280;41452;42.780;23.116;2022-10-16T04:30:03;95092.16;;;4.44;83.82
55590;BME280;41452;42.780;23.116;2022-10-16T04:32:29;94841.31;;;2.87;83.80
55590;BME280;41452;42.780;23.116;2022-10-16T04:34:54;94730.31;;;2.19;83.17
55590;BME280;41452;42.780;23.116;2022-10-16T04:37:24;94822.06;;;2.81;83.31
55590;BME280;41452;42.780;23.116;2022-10-16T04:39:50;94789.72;;;2.60;83.54
55590;BME280;41452;42.780;23.116;2022-10-16T04:42:15;94860.78;;;2.82;83.51
55590;BME280;41452;42.780;23.116;2022-10-16T04:44:40;94955.38;;;3.42;83.30
55590;BME280;41452;42.780;23.116;2022-10-16T04:47:06;94946.31;;;3.38;83.56
55590;BME280;41452;42.780;23.116;2022-10-16T04:49:31;94966.59;;;3.43;83.64
55590;BME280;41452;42.780;23.116;2022-10-16T04:51:56;95111.97;;;4.45;83.68
55590;BME280;41452;42.780;23.116;2022-10-16T04:54:22;94879.91;;;2.90;83.88
55590;BME280;41452;42.780;23.116;2022-10-16T04:56:47;94969.66;;;3.47;83.95
55590;BME280;41452;42.780;23.116;2022-10-16T04:59:16;95114.69;;;4.52;83.99
55590;BME280;41452;42.780;23.116;2022-10-16T05:01:41;94942.44;;;3.34;83.84
55590;BME280;41452;42.780;23.116;2022-10-16T05:04:07;94827.84;;;2.52;83.88
55590;BME280;41452;42.780;23.116;2022-10-16T05:06:33;95013.94;;;3.76;84.55
55590;BME280;41452;42.780;23.116;2022-10-16T05:08:58;94908.13;;;3.16;84.35
55590;BME280;41452;42.780;23.116;2022-10-16T05:11:24;95107.47;;;4.39;84.58
55590;BME280;41452;42.780;23.116;2022-10-16T05:13:49;94885.41;;;2.87;85.01
55590;BME280;41452;42.780;23.116;2022-10-16T05:16:15;95097.69;;;4.18;85.37
55590;BME280;41452;42.780;23.116;2022-10-16T05:18:40;94989.91;;;3.51;86.44
55590;BME280;41452;42.780;23.116;2022-10-16T05:21:06;95042.16;;;3.88;86.83
55590;BME280;41452;42.780;23.116;2022-10-16T05:23:32;94936.06;;;3.14;86.92
55590;BME280;41452;42.780;23.116;2022-10-16T05:25:58;94913.88;;;3.03;87.70
55590;BME280;41452;42.780;23.116;2022-10-16T05:28:26;95137.06;;;4.61;88.20
55590;BME280;41452;42.780;23.116;2022-10-16T05:30:51;95143.38;;;4.67;88.64
55590;BME280;41452;42.780;23.116;2022-10-16T05:33:17;94900.03;;;3.11;88.91
55590;BME280;41452;42.780;23.116;2022-10-16T05:35:42;95144.88;;;4.84;89.28
55590;BME280;41452;42.780;23.116;2022-10-16T05:38:09;95051.19;;;4.23;89.06
55590;BME280;41452;42.780;23.116;2022-10-16T05:40:34;95117.19;;;4.68;89.53
55590;BME280;41452;42.780;23.116;2022-10-16T05:43:00;95142.97;;;5.01;89.63
55590;BME280;41452;42.780;23.116;2022-10-16T05:45:25;94911.81;;;3.53;89.57
55590;BME280;41452;42.780;23.116;2022-10-16T05:47:51;95037.59;;;4.13;89.96
55590;BME280;41452;42.780;23.116;2022-10-16T05:50:16;95030.41;;;4.23;90.56
55590;BME280;41452;42.780;23.116;2022-10-16T05:52:42;94851.88;;;3.16;91.21
55590;BME280;41452;42.780;23.116;2022-10-16T05:55:07;95149.38;;;5.13;92.13
55590;BME280;41452;42.780;23.116;2022-10-16T05:57:33;95003.84;;;4.28;92.31
55590;BME280;41452;42.780;23.116;2022-10-16T05:59:58;94975.03;;;4.14;92.93
55590;BME280;41452;42.780;23.116;2022-10-16T06:02:24;95056.28;;;4.78;93.66
55590;BME280;41452;42.780;23.116;2022-10-16T06:04:51;95015.50;;;4.55;94.74
55590;BME280;41452;42.780;23.116;2022-10-16T06:07:18;95172.75;;;5.66;96.30
55590;BME280;41452;42.780;23.116;2022-10-16T06:09:44;95057.13;;;4.93;97.39
55590;BME280;41452;42.780;23.116;2022-10-16T06:12:12;95062.16;;;5.09;97.85
55590;BME280;41452;42.780;23.116;2022-10-16T06:14:38;95049.97;;;5.10;98.26
55590;BME280;41452;42.780;23.116;2022-10-16T06:17:03;95036.94;;;5.10;98.93
55590;BME280;41452;42.780;23.116;2022-10-16T06:19:28;94930.19;;;4.50;99.04
55590;BME280;41452;42.780;23.116;2022-10-16T06:21:54;95126.59;;;5.90;99.73
55590;BME280;41452;42.780;23.116;2022-10-16T06:24:19;95057.78;;;5.55;100.00
55590;BME280;41452;42.780;23.116;2022-10-16T06:26:45;95036.09;;;5.54;100.00
55590;BME280;41452;42.780;23.116;2022-10-16T06:29:10;94926.06;;;5.01;100.00
55590;BME280;41452;42.780;23.116;2022-10-16T06:31:35;95067.78;;;6.02;100.00
55590;BME280;41452;42.780;23.116;2022-10-16T06:34:01;94987.47;;;5.61;100.00
55590;BME280;41452;42.780;23.116;2022-10-16T06:36:27;94935.06;;;5.34;100.00
55590;BME280;41452;42.780;23.116;2022-10-16T06:38:53;95163.06;;;6.99;100.00
55590;BME280;41452;42.780;23.116;2022-10-16T06:41:20;95047.25;;;6.36;100.00
55590;BME280;41452;42.780;23.116;2022-10-16T06:43:46;95060.06;;;6.52;100.00
55590;BME280;41452;42.780;23.116;2022-10-16T06:46:14;95207.19;;;7.66;100.00
55590;BME280;41452;42.780;23.116;2022-10-16T06:48:40;95038.66;;;6.63;100.00
55590;BME280;41452;42.780;23.116;2022-10-16T06:51:06;95214.78;;;7.82;100.00
55590;BME280;41452;42.780;23.116;2022-10-16T06:53:34;95213.00;;;7.89;99.65
55590;BME280;41452;42.780;23.116;2022-10-16T06:56:12;95127.47;;;7.48;97.80
55590;BME280;41452;42.780;23.116;2022-10-16T06:58:38;94918.41;;;6.08;97.22
55590;BME280;41452;42.780;23.116;2022-10-16T07:01:05;95027.44;;;6.91;97.19
55590;BME280;41452;42.780;23.116;2022-10-16T07:03:30;95105.31;;;7.44;97.04
55590;BME280;41452;42.780;23.116;2022-10-16T07:05:56;94973.88;;;6.74;96.16
55590;BME280;41452;42.780;23.116;2022-10-16T07:08:22;95230.47;;;8.52;95.97
55590;BME280;41452;42.780;23.116;2022-10-16T07:10:47;95035.53;;;7.38;94.79
55590;BME280;41452;42.780;23.116;2022-10-16T07:13:13;94992.38;;;7.07;95.31
55590;BME280;41452;42.780;23.116;2022-10-16T07:15:40;95247.06;;;8.79;94.80
55590;BME280;41452;42.780;23.116;2022-10-16T07:18:06;94943.28;;;6.96;93.15
55590;BME280;41452;42.780;23.116;2022-10-16T07:20:32;95117.13;;;8.10;93.25
55590;BME280;41452;42.780;23.116;2022-10-16T07:22:58;95119.19;;;8.21;92.60
55590;BME280;41452;42.780;23.116;2022-10-16T07:25:23;95012.34;;;7.63;90.80
55590;BME280;41452;42.780;23.116;2022-10-16T07:27:49;95114.78;;;8.28;91.05
55590;BME280;41452;42.780;23.116;2022-10-16T07:30:14;95129.56;;;8.49;91.36
55590;BME280;41452;42.780;23.116;2022-10-16T07:32:40;95142.09;;;8.67;92.58
55590;BME280;41452;42.780;23.116;2022-10-16T07:35:05;95244.38;;;9.47;90.67
55590;BME280;41452;42.780;23.116;2022-10-16T07:37:31;95090.03;;;8.37;87.74
55590;BME280;41452;42.780;23.116;2022-10-16T07:39:56;95064.84;;;8.36;88.54
55590;BME280;41452;42.780;23.116;2022-10-16T07:42:22;95181.25;;;9.16;88.89
55590;BME280;41452;42.780;23.116;2022-10-16T07:44:48;95137.50;;;9.03;88.98
55590;BME280;41452;42.780;23.116;2022-10-16T07:47:13;95174.00;;;9.44;88.28
55590;BME280;41452;42.780;23.116;2022-10-16T07:49:38;95135.50;;;9.25;88.24
55590;BME280;41452;42.780;23.116;2022-10-16T07:52:04;95242.56;;;9.88;87.17
55590;BME280;41452;42.780;23.116;2022-10-16T07:54:29;95054.28;;;8.85;86.49
55590;BME280;41452;42.780;23.116;2022-10-16T07:56:56;94998.88;;;8.48;85.90
55590;BME280;41452;42.780;23.116;2022-10-16T07:59:21;94938.84;;;8.26;86.27
55590;BME280;41452;42.780;23.116;2022-10-16T08:01:49;95210.84;;;10.03;85.61
55590;BME280;41452;42.780;23.116;2022-10-16T08:04:14;95168.09;;;9.82;85.57
55590;BME280;41452;42.780;23.116;2022-10-16T08:06:40;95002.28;;;8.95;84.00
55590;BME280;41452;42.780;23.116;2022-10-16T08:09:06;95097.97;;;9.58;83.00
55590;BME280;41452;42.780;23.116;2022-10-16T08:11:32;95052.19;;;9.47;83.41
55590;BME280;41452;42.780;23.116;2022-10-16T08:13:58;95037.88;;;9.43;82.31
55590;BME280;41452;42.780;23.116;2022-10-16T08:16:23;95244.06;;;10.94;83.20
55590;BME280;41452;42.780;23.116;2022-10-16T08:18:49;95125.16;;;10.28;83.09
55590;BME280;41452;42.780;23.116;2022-10-16T08:21:19;95109.66;;;10.20;82.00
55590;BME280;41452;42.780;23.116;2022-10-16T08:23:45;95247.59;;;11.20;80.48
55590;BME280;41452;42.780;23.116;2022-10-16T08:26:10;95137.53;;;10.67;81.27
55590;BME280;41452;42.780;23.116;2022-10-16T08:28:36;95171.50;;;11.00;78.75
55590;BME280;41452;42.780;23.116;2022-10-16T08:33:31;95005.38;;;10.02;78.58
55590;BME280;41452;42.780;23.116;2022-10-16T08:35:56;95130.44;;;10.99;78.29
55590;BME280;41452;42.780;23.116;2022-10-16T08:38:22;95029.25;;;10.33;77.87
55590;BME280;41452;42.780;23.116;2022-10-16T08:40:47;95252.13;;;11.88;75.75
55590;BME280;41452;42.780;23.116;2022-10-16T08:50:56;95132.22;;;11.55;72.03
55590;BME280;41452;42.780;23.116;2022-10-16T08:53:28;95158.91;;;11.77;71.02
55590;BME280;41452;42.780;23.116;2022-10-16T08:55:55;95242.53;;;12.44;70.79
55590;BME280;41452;42.780;23.116;2022-10-16T08:58:22;95118.13;;;11.68;70.44
55590;BME280;41452;42.780;23.116;2022-10-16T09:00:57;95259.66;;;12.53;69.53
55590;BME280;41452;42.780;23.116;2022-10-16T09:06:10;95226.34;;;12.59;69.20
55590;BME280;41452;42.780;23.116;2022-10-16T09:16:57;95138.63;;;12.40;69.07
55590;BME280;41452;42.780;23.116;2022-10-16T09:21:56;95219.44;;;13.07;66.09
55590;BME280;41452;42.780;23.116;2022-10-16T09:24:25;95035.84;;;11.98;66.72
55590;BME280;41452;42.780;23.116;2022-10-16T09:26:51;95041.19;;;12.10;66.20
55590;BME280;41452;42.780;23.116;2022-10-16T09:29:18;95245.88;;;13.49;64.83
55590;BME280;41452;42.780;23.116;2022-10-16T09:31:48;95189.34;;;13.15;64.23
55590;BME280;41452;42.780;23.116;2022-10-16T09:34:27;95052.16;;;12.37;62.86
55590;BME280;41452;42.780;23.116;2022-10-16T09:36:56;95074.22;;;12.54;65.01
55590;BME280;41452;42.780;23.116;2022-10-16T09:39:22;95118.41;;;12.83;65.58
55590;BME280;41452;42.780;23.116;2022-10-16T09:41:48;95168.94;;;13.22;67.15
55590;BME280;41452;42.780;23.116;2022-10-16T09:47:22;95138.97;;;13.16;63.26
55590;BME280;41452;42.780;23.116;2022-10-16T09:49:56;95237.56;;;13.87;62.51
55590;BME280;41452;42.780;23.116;2022-10-16T09:52:23;95222.41;;;13.83;62.22
55590;BME280;41452;42.780;23.116;2022-10-16T09:55:00;95224.22;;;13.94;61.33
55590;BME280;41452;42.780;23.116;2022-10-16T09:57:27;95177.72;;;13.69;59.20
55590;BME280;41452;42.780;23.116;2022-10-16T09:59:55;95173.06;;;13.72;59.85
55590;BME280;41452;42.780;23.116;2022-10-16T10:02:37;95220.56;;;14.19;59.92
55590;BME280;41452;42.780;23.116;2022-10-16T10:05:06;95051.59;;;13.12;57.24
55590;BME280;41452;42.780;23.116;2022-10-16T10:07:43;95232.03;;;14.36;56.67
55590;BME280;41452;42.780;23.116;2022-10-16T10:10:39;94935.13;;;12.68;55.77
55590;BME280;41452;42.780;23.116;2022-10-16T10:13:18;95115.78;;;13.84;58.68
55590;BME280;41452;42.780;23.116;2022-10-16T10:15:44;95110.47;;;13.96;56.98
55590;BME280;41452;42.780;23.116;2022-10-16T10:18:21;95171.81;;;14.38;57.59
55590;BME280;41452;42.780;23.116;2022-10-16T10:20:58;95214.84;;;14.74;55.67
55590;BME280;41452;42.780;23.116;2022-10-16T10:23:25;95040.97;;;13.66;55.62
55590;BME280;41452;42.780;23.116;2022-10-16T10:36:40;95048.09;;;14.06;51.63
55590;BME280;41452;42.780;23.116;2022-10-16T10:44:36;95063.25;;;14.40;53.30
55590;BME280;41452;42.780;23.116;2022-10-16T10:49:47;95178.59;;;15.32;50.30
55590;BME280;41452;42.780;23.116;2022-10-16T10:55:00;95175.97;;;15.49;49.70
55590;BME280;41452;42.780;23.116;2022-10-16T11:06:08;95167.63;;;15.91;49.79
55590;BME280;41452;42.780;23.116;2022-10-16T11:08:47;95065.91;;;15.36;47.91
55590;BME280;41452;42.780;23.116;2022-10-16T11:11:22;95067.38;;;15.44;49.61
55590;BME280;41452;42.780;23.116;2022-10-16T11:16:30;95119.75;;;15.76;48.05
55590;BME280;41452;42.780;23.116;2022-10-16T11:21:27;95045.88;;;15.40;45.41
55590;BME280;41452;42.780;23.116;2022-10-16T11:24:04;95164.72;;;16.10;44.04
55590;BME280;41452;42.780;23.116;2022-10-16T11:26:36;95100.38;;;15.75;44.72
55590;BME280;41452;42.780;23.116;2022-10-16T11:29:11;95141.28;;;16.02;46.40
55590;BME280;41452;42.780;23.116;2022-10-16T11:31:42;95133.94;;;16.09;42.78
55590;BME280;41452;42.780;23.116;2022-10-16T11:34:28;95045.53;;;15.54;45.04
55590;BME280;41452;42.780;23.116;2022-10-16T11:37:06;95047.53;;;15.64;44.76
55590;BME280;41452;42.780;23.116;2022-10-16T11:39:35;95149.19;;;16.41;45.96
55590;BME280;41452;42.780;23.116;2022-10-16T11:42:22;95016.16;;;15.55;45.53
55590;BME280;41452;42.780;23.116;2022-10-16T11:50:06;95043.88;;;16.09;44.32
55590;BME280;41452;42.780;23.116;2022-10-16T11:52:46;95155.44;;;16.79;42.82
55590;BME280;41452;42.780;23.116;2022-10-16T11:55:20;95115.88;;;16.50;39.72
55590;BME280;41452;42.780;23.116;2022-10-16T11:58:03;95136.53;;;16.70;40.34
55590;BME280;41452;42.780;23.116;2022-10-16T12:06:17;95150.88;;;16.96;41.27
55590;BME280;41452;42.780;23.116;2022-10-16T12:08:49;95081.47;;;16.55;41.19
55590;BME280;41452;42.780;23.116;2022-10-16T12:14:07;95114.31;;;16.76;40.96
55590;BME280;41452;42.780;23.116;2022-10-16T12:16:58;95086.41;;;16.68;43.01
55590;BME280;41452;42.780;23.116;2022-10-16T12:19:28;95142.06;;;17.18;41.99
55590;BME280;41452;42.780;23.116;2022-10-16T12:21:59;95077.06;;;16.88;42.12
55590;BME280;41452;42.780;23.116;2022-10-16T12:24:44;95059.88;;;16.68;41.54
55590;BME280;41452;42.780;23.116;2022-10-16T12:27:34;95120.75;;;17.07;39.13
55590;BME280;41452;42.780;23.116;2022-10-16T12:30:03;95065.72;;;16.70;40.55
55590;BME280;41452;42.780;23.116;2022-10-16T12:32:36;95141.84;;;17.24;40.05
55590;BME280;41452;42.780;23.116;2022-10-16T12:35:05;95020.97;;;16.47;39.93
55590;BME280;41452;42.780;23.116;2022-10-16T12:37:33;95148.56;;;17.32;40.03
55590;BME280;41452;42.780;23.116;2022-10-16T12:40:12;95114.94;;;17.10;41.14
55590;BME280;41452;42.780;23.116;2022-10-16T12:42:57;95141.91;;;17.29;40.18
55590;BME280;41452;42.780;23.116;2022-10-16T12:45:26;95141.94;;;17.35;40.82
55590;BME280;41452;42.780;23.116;2022-10-16T12:47:54;95140.44;;;17.44;40.25
55590;BME280;41452;42.780;23.116;2022-10-16T12:50:31;95066.50;;;16.93;40.35
55590;BME280;41452;42.780;23.116;2022-10-16T12:52:57;95083.09;;;17.10;38.45
55590;BME280;41452;42.780;23.116;2022-10-16T12:55:24;94996.53;;;16.45;38.34
55590;BME280;41452;42.780;23.116;2022-10-16T13:00:26;95096.81;;;17.02;40.27
55590;BME280;41452;42.780;23.116;2022-10-16T13:03:20;94998.63;;;16.43;39.64
55590;BME280;41452;42.780;23.116;2022-10-16T13:11:12;95036.34;;;16.50;39.79
55590;BME280;41452;42.780;23.116;2022-10-16T13:16:49;95151.19;;;17.27;38.98
55590;BME280;41452;42.780;23.116;2022-10-16T13:19:42;95155.75;;;17.37;39.41
55590;BME280;41452;42.780;23.116;2022-10-16T13:27:37;95144.25;;;17.26;39.04
55590;BME280;41452;42.780;23.116;2022-10-16T13:30:16;95075.56;;;16.75;39.16
55590;BME280;41452;42.780;23.116;2022-10-16T13:33:07;95147.59;;;17.11;36.61
55590;BME280;41452;42.780;23.116;2022-10-16T13:35:46;95158.56;;;17.25;34.35
55590;BME280;41452;42.780;23.116;2022-10-16T13:38:16;95156.44;;;17.22;33.78
55590;BME280;41452;42.780;23.116;2022-10-16T13:40:49;95173.66;;;17.19;34.66
55590;BME280;41452;42.780;23.116;2022-10-16T13:43:17;95063.41;;;16.52;34.94
55590;BME280;41452;42.780;23.116;2022-10-16T13:45:53;95153.16;;;17.09;34.46
55590;BME280;41452;42.780;23.116;2022-10-16T13:48:18;95089.00;;;16.63;35.61
55590;BME280;41452;42.780;23.116;2022-10-16T13:50:44;95132.16;;;16.81;35.57
55590;BME280;41452;42.780;23.116;2022-10-16T13:53:13;95165.75;;;16.97;36.76
55590;BME280;41452;42.780;23.116;2022-10-16T13:55:39;95167.03;;;16.95;36.12
55590;BME280;41452;42.780;23.116;2022-10-16T13:58:15;95129.25;;;16.60;34.97
55590;BME280;41452;42.780;23.116;2022-10-16T14:01:00;95067.84;;;16.19;35.64
55590;BME280;41452;42.780;23.116;2022-10-16T14:03:27;95078.50;;;16.24;35.89
55590;BME280;41452;42.780;23.116;2022-10-16T14:05:55;95172.97;;;16.80;36.51
55590;BME280;41452;42.780;23.116;2022-10-16T14:08:23;95174.47;;;16.70;37.44
55590;BME280;41452;42.780;23.116;2022-10-16T14:10:51;95041.78;;;15.72;37.16
55590;BME280;41452;42.780;23.116;2022-10-16T14:13:21;95162.69;;;16.39;37.23
55590;BME280;41452;42.780;23.116;2022-10-16T14:15:51;95166.72;;;16.42;37.20
55590;BME280;41452;42.780;23.116;2022-10-16T14:18:23;95147.47;;;16.29;37.25
55590;BME280;41452;42.780;23.116;2022-10-16T14:20:49;95177.41;;;16.52;38.25
55590;BME280;41452;42.780;23.116;2022-10-16T14:23:28;95131.63;;;16.12;38.39
55590;BME280;41452;42.780;23.116;2022-10-16T14:25:54;95136.06;;;16.07;38.08
55590;BME280;41452;42.780;23.116;2022-10-16T14:28:21;95161.13;;;16.21;38.30
55590;BME280;41452;42.780;23.116;2022-10-16T14:30:58;95171.41;;;16.34;38.30
55590;BME280;41452;42.780;23.116;2022-10-16T14:33:32;95073.44;;;15.62;37.87
55590;BME280;41452;42.780;23.116;2022-10-16T14:38:27;95180.72;;;16.20;39.22
55590;BME280;41452;42.780;23.116;2022-10-16T14:40:52;95024.09;;;15.16;40.02
55590;BME280;41452;42.780;23.116;2022-10-16T14:43:25;95163.47;;;15.95;40.34
55590;BME280;41452;42.780;23.116;2022-10-16T14:45:53;95194.47;;;16.17;40.98
55590;BME280;41452;42.780;23.116;2022-10-16T14:48:19;95147.81;;;15.77;41.76
55590;BME280;41452;42.780;23.116;2022-10-16T14:50:46;95208.63;;;16.06;42.46
55590;BME280;41452;42.780;23.116;2022-10-16T14:53:11;95200.94;;;16.04;42.65
55590;BME280;41452;42.780;23.116;2022-10-16T14:55:38;95095.13;;;15.25;42.62